Boca Raton, FL

9:10 AM EDT on August 28, 2015 (GMT -0400)
Boca East | | Change Station
CLOSE
Current Station
Personal Weather Station
Location: Boca Raton, FL
Elevation: 46 ft
Nearby Weather Stations

Elev 46 ft 26.39 °N, 80.11 °W | Updated 3 minutes ago

Clear
Clear
85.6 °F
Feels Like 98 °F
N
6.0
Wind Variable Wind from WSW
Gusts 10.0 mph

Today
High -- | Low -- °F
--% Chance of Precip.
Yesterday
High -- | Low -- °F
Precip. -- in
6:58 AM 7:44 PM
Waxing Gibbous, 98% visible
Pressure 30.01 in
Visibility 10.0 miles
Clouds Few 2300 ft
Scattered Clouds 3400 ft
Scattered Clouds 16000 ft
Mostly Cloudy 25000 ft
Heat Index 98 °F
Dew Point 78 °F
Humidity 78%
Rainfall 0.00 in
Snow Depth Not available.
UV 1 out of 12
Pollen 2.10 out of 12
Air Quality Not available.
Flu Activity Not available.
METAR KPMP 281253Z 17007KT 10SM FEW023 SCT034 SCT160 BKN250 29/24 A3000 RMK AO2 LTG DSNT E AND S SLP161 T02940244
Pressure 30.01 in
Visibility 10.0 miles
Clouds Few 2300 ft
Scattered Clouds 3400 ft
Scattered Clouds 16000 ft
Mostly Cloudy 25000 ft
Heat Index 98 °F
Dew Point 78 °F
Humidity 78%
Rainfall 0.00 in
Snow Depth Not available.
UV 1 out of 12
Pollen 2.10 out of 12
Air Quality Not available.
Flu Activity Not available.
METAR KPMP 281253Z 17007KT 10SM FEW023 SCT034 SCT160 BKN250 29/24 A3000 RMK AO2 LTG DSNT E AND S SLP161 T02940244
Tropical Storm Erika remains unorganized as it travels through the northeast Caribbean Sea. Puerto Rico could receive over a foot of rain from Erika, which could help the ongoing drought but could also produce dangerous mudslides. Erika is not forecast to reach hurricane strength until Monday when it curves northward along the east coast of Florida. Follow the live blog

Nowcast | as of 8:34 am EDT on August 28, 2015

Isolated to scattered showers and a few embedded thunderstorms will be possible across most of South Florida including Lake Okeechobee and the Gulf waters through the morning.

×

10-Day Weather Forecast

×

Almanac

Astronomy

Aug. 28, 2015 Rise Set
Actual Time
Civil Twilight
Nautical Twilight
Astronomical Twilight
Moon
Length of Visible Light
Length of Day
Tomorrow will be .
, % of the Moon is Illuminated

Today's Extremes

State Highs State Lows

Community

WunderPhotos

Upload Photos

1,850,375 photos uploaded!

WunderBlogs® & News

Nearby

Air Quality

  Air Quality AQ Index Pollutant
Not available.

Snow Depth

Station Depth Elevation

Earthquake Activity

City Distance Mag. Time & Date
Minimum magnitude displayed is 2.5.

Coastal Water Temperatures

Place Temperature

Stations

Nearby Weather Stations

Station Location Temp. Windchill Dew Point Humidity Wind Precip. Elev Updated Type